KAJG

Mount Carmel Municipal Airport

Mount Carmel, Illinois, USA
METAR KAJG 190255Z AUTO 00000KT 10SM CLR 22/21 A2993 RMK AO2 T02240206
Observed Flight Rules
Sep-19 @ 02:55 UTC (35 minutes ago) Visual Flight Rules
Visibility Clouds
10 miles
  • Clear skies
Temperatures Readings
Current 22°C / 72°F
Dewpoint 21°C / 70°F
Humidity 94%
Altimeter 29.93" Hg
Pressure 1014 hPa
Elevation 131
METAR KAJG 190255Z AUTO 00000KT 10SM CLR 22/21 A2993 RMK AO2 T02240206
Observed Flight Rules
Sep-19 @ 02:55 UTC
(35 minutes ago)
VFR
Clouds
  • Clear skies
Temperature Dewpoint
22°C / 72°F 21°C / 70°F
Humidity Altimeter Pressure
94% 29.93" Hg 1014 hPa